EPKKEPKT

Guest
Details From EPKK - Balice
To EPKT - Pyrzowice
Flight Number -
Tags Generated
Created
Modified
Stats Distance 36 nm / 67 km
Max Altitude 0 ft / 0 m
Waypoints 2
Social Downloads 3
Likes 0
Share VATSIM

Download

Looking for another format? Having issues loading an existing format? Contact us
Advertisement - Login to hide

Notes

Generated

Route

EPKK EPKT

ID Type Via Altitude Latitude Longitude Leg Dist Tot Dist Heading (true) Name
O EPKK APT - 0 ft / 0 m 50.07540˚ 19.76809˚ - 0 nm - -
O EPKT APT - 0 ft / 0 m 50.47431˚ 19.05464˚ 36 nm 36 nm 311° / 311° -

Altitude Profile

Advertisement - Login to hide

EPKK

Details ICAO EPKK (KRK)
Name BALICE
Region Poland
Timezone Europe/Warsaw (UTC+1.0)
Stats Elevation 791 ft / 241 m (AMSL)
Location 50.077821° 19.785503°
Runways 1
Magnetic Variation 5.202° E

METAR

EPKK 160700Z 23002KT 8000 SCT040 M01/M03 Q1002

Decode

TAF

TAF EPKK 160530Z 1606/1706 VRB02KT 3000 BR BKN025 BECMG 1608/1610 26010KT 7000 TEMPO 1610/1706 4000 -SN BR BKN009 BECMG 1620/1622 VRB02KT PROB40 1700/1706 1200 SN BR BKN004

Decode

Departure Runways

ID Width Length Bearing (true) Bearing (mag) Surface Threshold Offset Overrun Length
07 197 ft / 60 m 8,343 ft / 2,543 m 77.75° 72.55° Concrete 0 ft / 0 m 0 ft / 0 m
25 197 ft / 60 m 8,343 ft / 2,543 m 257.77° 252.57° Concrete 784 ft / 239 m 0 ft / 0 m

EPKT

Details ICAO EPKT (KTW)
Name PYRZOWICE
Region Poland
Timezone Europe/Warsaw (UTC+1.0)
Stats Elevation 995 ft / 303 m (AMSL)
Location 50.474263° 19.074356°
Runways 1
Magnetic Variation 5.085° E

METAR

EPKT 160700Z VRB02KT 4800 BR NSC M04/M05 Q1001

Decode

TAF

TAF EPKT 160530Z 1606/1706 VRB02KT 3000 BR BKN020 BECMG 1606/1608 33010KT 7000 TEMPO 1608/1706 4000 -SN BR BKN007 PROB40 1700/1706 1200 SN BR BKN002

Decode

Destination Runways

ID Width Length Bearing (true) Bearing (mag) Surface Threshold Offset Overrun Length
09 195 ft / 59 m 9,156 ft / 2,791 m 90.18° 85.09° Concrete 0 ft / 0 m 0 ft / 0 m
27 195 ft / 59 m 9,156 ft / 2,791 m 270.22° 265.13° Concrete 0 ft / 0 m 0 ft / 0 m

Approach Navaids

Runway Type Ident Frequency Range Bearing (true) Bearing (mag) Slope Elevation
27 Localiser KAT 109.90 MHz 18 nm / 33 km 270.18° 265.09° - 995 ft / 303 m (AMSL)
27 Glidescope KAT 109.90 MHz 10 nm / 19 km 270.20° 265.11° 3.20° 995 ft / 303 m (AMSL)

Popular Alternatives